createdAt,value
2022-12-05T00:00:10.655Z,99159.46
2022-12-05T00:01:41.077Z,99153.92
2022-12-05T00:02:43.266Z,99159.83
2022-12-05T00:03:47.037Z,99160.48
2022-12-05T00:04:48.858Z,99161.98
2022-12-05T00:05:50.610Z,99162.62
2022-12-05T00:06:52.425Z,99161.96
2022-12-05T00:07:54.487Z,99162.37
2022-12-05T00:08:57.931Z,99158.72
2022-12-05T00:10:01.782Z,99158.40
2022-12-05T00:11:03.689Z,99159.80
2022-12-05T00:12:05.688Z,99159.88
2022-12-05T00:13:07.805Z,99160.98
2022-12-05T00:14:11.092Z,99163.08
2022-12-05T00:15:13.160Z,99160.20
2022-12-05T00:16:18.321Z,99161.10
2022-12-05T00:17:20.148Z,99160.01
2022-12-05T00:18:21.909Z,99161.20
2022-12-05T00:19:23.713Z,99162.05
2022-12-05T00:20:26.735Z,99160.53
2022-12-05T00:21:31.813Z,99161.73
2022-12-05T00:22:38.180Z,99157.60
2022-12-05T00:23:40.387Z,99156.41
2022-12-05T00:24:42.334Z,99159.03
2022-12-05T00:25:44.164Z,99159.48
2022-12-05T00:26:45.911Z,99159.59
2022-12-05T00:27:48.236Z,99159.26
2022-12-05T00:28:51.281Z,99157.48
2022-12-05T00:29:52.993Z,99152.39
2022-12-05T00:30:54.835Z,99151.03
2022-12-05T00:31:56.959Z,99153.70
2022-12-05T00:32:58.820Z,99151.93
2022-12-05T00:34:03.160Z,99148.61
2022-12-05T00:35:05.419Z,99149.63
2022-12-05T00:36:13.999Z,99149.94
2022-12-05T00:37:15.771Z,99153.41
2022-12-05T00:38:17.546Z,99151.86
2022-12-05T00:39:19.289Z,99154.38
2022-12-05T00:40:21.051Z,99156.48
2022-12-05T00:41:25.687Z,99154.52
2022-12-05T00:42:27.455Z,99156.90
2022-12-05T00:43:29.233Z,99152.22
2022-12-05T00:44:30.982Z,99154.39
2022-12-05T00:45:33.896Z,99154.92
2022-12-05T00:46:36.405Z,99152.20
2022-12-05T00:47:38.633Z,99152.70
2022-12-05T00:48:41.204Z,99151.56
2022-12-05T00:49:42.949Z,99151.73
2022-12-05T00:50:44.715Z,99150.13
2022-12-05T00:51:46.621Z,99153.38
2022-12-05T00:52:48.444Z,99155.06
2022-12-05T00:53:50.650Z,99153.02
2022-12-05T00:54:52.424Z,99152.04
2022-12-05T00:55:54.234Z,99151.65
2022-12-05T00:56:58.799Z,99150.02
2022-12-05T00:58:00.638Z,99150.95
2022-12-05T00:59:04.582Z,99146.10
2022-12-05T01:00:07.511Z,99147.40
2022-12-05T01:01:11.436Z,99148.04
2022-12-05T01:02:13.302Z,99143.73
2022-12-05T01:03:15.121Z,99138.73
2022-12-05T01:04:20.747Z,99138.85
2022-12-05T01:05:22.457Z,99136.90
2022-12-05T01:06:25.793Z,99133.30
2022-12-05T01:07:27.524Z,99136.39
2022-12-05T01:08:29.711Z,99135.92
2022-12-05T01:09:31.444Z,99135.06
2022-12-05T01:10:33.218Z,99130.85
2022-12-05T01:11:40.910Z,99134.70
2022-12-05T01:12:43.285Z,99134.79
2022-12-05T01:13:46.068Z,99136.36
2022-12-05T01:14:47.861Z,99134.48
2022-12-05T01:15:50.848Z,99132.73
2022-12-05T01:16:55.217Z,99134.85
2022-12-05T01:17:57.085Z,99133.45
2022-12-05T01:19:01.137Z,99129.06
2022-12-05T01:20:03.899Z,99124.13
2022-12-05T01:21:06.371Z,99124.45
2022-12-05T01:22:08.205Z,99123.47
2022-12-05T01:23:10.557Z,99121.27
2022-12-05T01:24:12.803Z,99126.39
2022-12-05T01:25:14.535Z,99128.08
2022-12-05T01:26:19.384Z,99125.88
2022-12-05T01:27:21.195Z,99129.03
2022-12-05T01:28:23.052Z,99127.08
2022-12-05T01:29:25.642Z,99131.46
2022-12-05T01:30:27.512Z,99129.04
2022-12-05T01:31:32.369Z,99127.77
2022-12-05T01:32:34.595Z,99128.11
2022-12-05T01:33:36.522Z,99130.28
2022-12-05T01:34:38.270Z,99128.58
2022-12-05T01:35:41.568Z,99128.95
2022-12-05T01:36:44.127Z,99125.95
2022-12-05T01:37:45.967Z,99125.32
2022-12-05T01:38:48.214Z,99118.19
2022-12-05T01:39:49.974Z,99121.70
2022-12-05T01:41:00.643Z,99123.17
2022-12-05T01:42:05.407Z,99127.10
2022-12-05T01:43:17.100Z,99129.92
2022-12-05T01:44:18.700Z,99123.02
2022-12-05T01:45:41.767Z,99120.89
2022-12-05T01:46:44.769Z,99124.88
2022-12-05T01:47:47.412Z,99125.95
2022-12-05T01:48:53.619Z,99124.63
2022-12-05T01:49:55.931Z,99127.68
2022-12-05T01:51:00.455Z,99126.75
2022-12-05T01:52:07.844Z,99127.62
2022-12-05T01:53:09.805Z,99126.12
2022-12-05T01:54:12.639Z,99126.08
2022-12-05T01:55:19.042Z,99131.63
2022-12-05T01:56:21.174Z,99130.42
2022-12-05T01:57:24.926Z,99131.33
2022-12-05T01:58:37.445Z,99135.05
2022-12-05T01:59:48.828Z,99134.71
2022-12-05T02:00:51.230Z,99132.55
2022-12-05T02:01:53.131Z,99132.57
2022-12-05T02:02:59.596Z,99129.02
2022-12-05T02:04:02.789Z,99130.39
2022-12-05T02:05:11.826Z,99132.11
2022-12-05T02:06:14.323Z,99128.60
2022-12-05T02:07:16.233Z,99130.27
2022-12-05T02:08:18.927Z,99122.69
2022-12-05T02:09:22.194Z,99123.02
2022-12-05T02:10:25.805Z,99120.21
2022-12-05T02:11:30.975Z,99126.45
2022-12-05T02:12:33.277Z,99117.22
2022-12-05T02:13:54.290Z,99117.54
2022-12-05T02:15:14.052Z,99115.22
2022-12-05T02:16:30.179Z,99115.89
2022-12-05T02:17:51.775Z,99113.83
2022-12-05T02:18:59.382Z,99111.03
2022-12-05T02:20:15.299Z,99101.77
2022-12-05T02:21:35.659Z,99102.79
2022-12-05T02:23:14.834Z,99105.92
2022-12-05T02:24:53.951Z,99102.89
2022-12-05T02:26:25.074Z,99101.92
2022-12-05T02:27:45.735Z,99106.24
2022-12-05T02:29:18.061Z,99110.77
2022-12-05T02:30:23.529Z,99113.38
2022-12-05T02:31:48.563Z,99117.88
2022-12-05T02:33:07.194Z,99112.90
2022-12-05T02:34:29.273Z,99110.70
2022-12-05T02:35:38.559Z,99112.72
2022-12-05T02:36:49.604Z,99112.20
2022-12-05T02:38:22.101Z,99108.22
2022-12-05T02:39:44.292Z,99104.58
2022-12-05T02:41:27.331Z,99097.48
2022-12-05T02:42:51.311Z,99101.65
2022-12-05T02:43:55.977Z,99098.29
2022-12-05T02:45:15.181Z,99093.52
2022-12-05T02:46:22.747Z,99090.63
2022-12-05T02:47:31.316Z,99091.56
2022-12-05T02:48:37.301Z,99088.25
2022-12-05T02:49:42.308Z,99090.23
2022-12-05T02:50:47.877Z,99086.64
2022-12-05T02:51:56.802Z,99087.33
2022-12-05T02:53:03.825Z,99081.33
2022-12-05T02:54:13.016Z,99079.52
2022-12-05T02:55:19.019Z,99076.25
2022-12-05T02:56:22.150Z,99077.48
2022-12-05T02:57:26.889Z,99076.16
2022-12-05T02:58:36.042Z,99076.48
2022-12-05T02:59:37.812Z,99078.96
2022-12-05T03:00:44.523Z,99077.61
2022-12-05T03:01:47.637Z,99077.13
2022-12-05T03:02:56.341Z,99076.59
2022-12-05T03:04:02.095Z,99079.46
2022-12-05T03:05:30.354Z,99076.66
2022-12-05T03:06:43.178Z,99075.44
2022-12-05T03:07:50.031Z,99071.85
2022-12-05T03:09:13.304Z,99074.02
2022-12-05T03:10:21.348Z,99072.21
2022-12-05T03:11:23.685Z,99070.76
2022-12-05T03:12:42.257Z,99071.61
2022-12-05T03:14:00.203Z,99072.68
2022-12-05T03:15:15.821Z,99073.33
2022-12-05T03:16:36.044Z,99070.33
2022-12-05T03:17:48.145Z,99068.34
2022-12-05T03:18:56.710Z,99066.63
2022-12-05T03:20:08.140Z,99067.98
2022-12-05T03:21:20.919Z,99072.36
2022-12-05T03:22:31.926Z,99065.05
2022-12-05T03:23:39.823Z,99068.61
2022-12-05T03:24:42.665Z,99066.86
2022-12-05T03:26:03.759Z,99068.71
2022-12-05T03:27:45.279Z,99066.27
2022-12-05T03:28:52.778Z,99066.49
2022-12-05T03:30:10.153Z,99060.93
2022-12-05T03:31:17.645Z,99061.81
2022-12-05T03:32:45.813Z,99060.18
2022-12-05T03:33:54.834Z,99063.48
2022-12-05T03:35:11.888Z,99063.51
2022-12-05T03:36:23.252Z,99062.63
2022-12-05T03:37:37.167Z,99065.24
2022-12-05T03:39:11.542Z,99061.25
2022-12-05T03:40:32.015Z,99060.02
2022-12-05T03:41:50.256Z,99063.14
2022-12-05T03:43:09.109Z,99063.77
2022-12-05T03:44:24.500Z,99068.95
2022-12-05T03:45:56.917Z,99063.98
2022-12-05T03:47:12.514Z,99069.27
2022-12-05T03:48:27.494Z,99069.20
2022-12-05T03:49:43.272Z,99067.80
2022-12-05T03:50:49.628Z,99072.17
2022-12-05T03:52:04.281Z,99074.95
2022-12-05T03:53:21.320Z,99078.18
2022-12-05T03:54:26.378Z,99079.58
2022-12-05T03:55:33.575Z,99076.76
2022-12-05T03:56:41.996Z,99079.65
2022-12-05T03:57:55.842Z,99078.80
2022-12-05T03:59:10.125Z,99077.14
2022-12-05T04:00:19.012Z,99079.77
2022-12-05T04:01:25.763Z,99079.33
2022-12-05T04:02:45.427Z,99076.48
2022-12-05T04:03:53.998Z,99082.52
2022-12-05T04:05:13.549Z,99085.63
2022-12-05T04:06:33.446Z,99087.77
2022-12-05T04:07:40.822Z,99087.56
2022-12-05T04:08:56.309Z,99091.73
2022-12-05T04:10:07.206Z,99094.11
2022-12-05T04:11:17.120Z,99091.23
2022-12-05T04:12:27.521Z,99093.04
2022-12-05T04:13:59.736Z,99092.96
2022-12-05T04:15:13.212Z,99096.42
2022-12-05T04:16:42.133Z,99098.38
2022-12-05T04:17:53.912Z,99098.36
2022-12-05T04:19:18.849Z,99099.18
2022-12-05T04:20:42.096Z,99098.89
2022-12-05T04:21:50.520Z,99101.05
2022-12-05T04:22:52.387Z,99102.18
2022-12-05T04:24:12.923Z,99102.17
2022-12-05T04:25:35.652Z,99100.89
2022-12-05T04:26:46.897Z,99101.29
2022-12-05T04:27:59.616Z,99098.77
2022-12-05T04:29:23.104Z,99098.67
2022-12-05T04:30:34.095Z,99104.02
2022-12-05T04:31:44.005Z,99102.71
2022-12-05T04:32:52.160Z,99099.30
2022-12-05T04:34:01.294Z,99099.21
2022-12-05T04:35:11.894Z,99098.77
2022-12-05T04:36:25.635Z,99093.67
2022-12-05T04:37:35.027Z,99097.11
2022-12-05T04:38:46.009Z,99095.27
2022-12-05T04:39:56.955Z,99094.85
2022-12-05T04:41:06.406Z,99091.48
2022-12-05T04:42:15.107Z,99091.28
2022-12-05T04:43:20.571Z,99092.42
2022-12-05T04:44:30.303Z,99095.04
2022-12-05T04:45:33.995Z,99093.08
2022-12-05T04:46:41.660Z,99092.67
2022-12-05T04:47:51.782Z,99090.50
2022-12-05T04:48:59.221Z,99093.91
2022-12-05T04:50:04.326Z,99090.36
2022-12-05T04:51:09.817Z,99093.02
2022-12-05T04:52:13.534Z,99094.48
2022-12-05T04:53:17.711Z,99091.34
2022-12-05T04:54:29.743Z,99096.65
2022-12-05T04:55:36.741Z,99093.72
2022-12-05T04:56:43.973Z,99095.29
2022-12-05T04:58:33.751Z,99095.74
2022-12-05T04:59:36.365Z,99092.45
2022-12-05T05:00:56.652Z,99091.52
2022-12-05T05:02:06.732Z,99091.80
2022-12-05T05:03:19.415Z,99092.69
2022-12-05T05:04:29.409Z,99093.33
2022-12-05T05:05:35.113Z,99094.06
2022-12-05T05:06:39.550Z,99095.25
2022-12-05T05:07:52.897Z,99094.02
2022-12-05T05:08:56.996Z,99095.41
2022-12-05T05:09:59.070Z,99089.69
2022-12-05T05:11:14.635Z,99095.91
2022-12-05T05:12:19.216Z,99094.52
2022-12-05T05:13:21.486Z,99093.65
2022-12-05T05:14:23.235Z,99092.30
2022-12-05T05:15:25.093Z,99092.70
2022-12-05T05:16:30.170Z,99095.95
2022-12-05T05:17:31.998Z,99091.55
2022-12-05T05:18:34.142Z,99095.63
2022-12-05T05:19:36.011Z,99095.73
2022-12-05T05:20:38.524Z,99092.34
2022-12-05T05:21:42.422Z,99090.06
2022-12-05T05:22:44.170Z,99086.62
2022-12-05T05:23:46.694Z,99089.10
2022-12-05T05:24:48.402Z,99088.98
2022-12-05T05:25:56.845Z,99088.35
2022-12-05T05:26:58.568Z,99091.94
2022-12-05T05:28:00.316Z,99093.98
2022-12-05T05:29:02.416Z,99091.40
2022-12-05T05:30:04.906Z,99087.40
2022-12-05T05:31:07.557Z,99083.52
2022-12-05T05:32:09.372Z,99087.06
2022-12-05T05:33:11.142Z,99082.92
2022-12-05T05:34:16.155Z,99085.63
2022-12-05T05:35:18.011Z,99085.91
2022-12-05T05:36:21.729Z,99084.78
2022-12-05T05:37:23.464Z,99081.89
2022-12-05T05:38:25.235Z,99087.40
2022-12-05T05:39:29.611Z,99079.76
2022-12-05T05:40:31.391Z,99084.64
2022-12-05T05:41:35.732Z,99083.39
2022-12-05T05:42:42.561Z,99082.34
2022-12-05T05:43:45.694Z,99073.61
2022-12-05T05:44:47.697Z,99070.77
2022-12-05T05:45:49.418Z,99074.77
2022-12-05T05:46:51.264Z,99074.25
2022-12-05T05:47:53.120Z,99075.53
2022-12-05T05:48:55.192Z,99074.05
2022-12-05T05:49:57.288Z,99069.80
2022-12-05T05:51:00.322Z,99071.90
2022-12-05T05:52:02.096Z,99077.11
2022-12-05T05:53:03.863Z,99074.54
2022-12-05T05:54:05.721Z,99078.30
2022-12-05T05:55:09.221Z,99073.52
2022-12-05T05:56:20.046Z,99073.09
2022-12-05T05:57:23.109Z,99075.25
2022-12-05T05:58:25.009Z,99074.85
2022-12-05T05:59:26.777Z,99074.92
2022-12-05T06:00:28.490Z,99074.27
2022-12-05T06:01:31.082Z,99074.67
2022-12-05T06:02:34.684Z,99077.37
2022-12-05T06:03:38.066Z,99077.27
2022-12-05T06:04:39.920Z,99075.05
2022-12-05T06:05:41.679Z,99070.15
2022-12-05T06:06:43.419Z,99075.33
2022-12-05T06:07:45.222Z,99077.33
2022-12-05T06:08:47.472Z,99073.70
2022-12-05T06:09:49.249Z,99076.80
2022-12-05T06:10:51.279Z,99077.46
2022-12-05T06:11:53.004Z,99075.82
2022-12-05T06:12:54.775Z,99075.98
2022-12-05T06:14:01.074Z,99074.71
2022-12-05T06:15:03.081Z,99076.90
2022-12-05T06:16:08.158Z,99076.53
2022-12-05T06:17:09.937Z,99076.13
2022-12-05T06:18:11.767Z,99073.23
2022-12-05T06:19:13.953Z,99075.61
2022-12-05T06:20:15.829Z,99069.78
2022-12-05T06:21:17.710Z,99066.19
2022-12-05T06:22:19.461Z,99063.76
2022-12-05T06:23:21.738Z,99062.16
2022-12-05T06:24:23.521Z,99060.38
2022-12-05T06:25:25.471Z,99055.39
2022-12-05T06:26:27.253Z,99056.00
2022-12-05T06:27:31.463Z,99059.11
2022-12-05T06:28:33.310Z,99057.02
2022-12-05T06:29:35.728Z,99056.81
2022-12-05T06:30:38.597Z,99055.00
2022-12-05T06:31:42.333Z,99053.56
2022-12-05T06:32:44.143Z,99058.36
2022-12-05T06:33:46.491Z,99059.39
2022-12-05T06:34:48.223Z,99056.83
2022-12-05T06:36:01.241Z,99054.42
2022-12-05T06:37:03.117Z,99055.89
2022-12-05T06:38:06.385Z,99055.73
2022-12-05T06:39:09.008Z,99056.77
2022-12-05T06:40:13.676Z,99060.05
2022-12-05T06:41:18.985Z,99063.64
2022-12-05T06:42:22.306Z,99062.84
2022-12-05T06:43:24.433Z,99063.06
2022-12-05T06:44:27.224Z,99064.42
2022-12-05T06:45:29.057Z,99068.27
2022-12-05T06:46:30.977Z,99067.34
2022-12-05T06:47:32.721Z,99069.08
2022-12-05T06:48:35.214Z,99068.43
2022-12-05T06:49:38.222Z,99066.89
2022-12-05T06:50:40.218Z,99070.33
2022-12-05T06:51:41.979Z,99070.05
2022-12-05T06:52:43.712Z,99063.64
2022-12-05T06:53:45.664Z,99065.24
2022-12-05T06:54:47.440Z,99067.16
2022-12-05T06:56:05.201Z,99064.15
2022-12-05T06:57:06.939Z,99061.08
2022-12-05T06:58:08.649Z,99063.90
2022-12-05T06:59:11.036Z,99060.91
2022-12-05T07:00:32.387Z,99061.27
2022-12-05T07:01:41.474Z,99056.17
2022-12-05T07:02:43.718Z,99057.72
2022-12-05T07:03:45.629Z,99055.55
2022-12-05T07:04:47.361Z,99058.25
2022-12-05T07:05:49.090Z,99052.15
2022-12-05T07:06:52.853Z,99047.91
2022-12-05T07:07:55.186Z,99052.05
2022-12-05T07:08:57.302Z,99053.82
2022-12-05T07:09:59.218Z,99055.63
2022-12-05T07:11:02.707Z,99057.95
2022-12-05T07:12:04.636Z,99059.23
2022-12-05T07:13:06.438Z,99060.75
2022-12-05T07:14:14.912Z,99059.49
2022-12-05T07:15:26.541Z,99058.79
2022-12-05T07:16:28.314Z,99051.30
2022-12-05T07:17:30.153Z,99052.20
2022-12-05T07:18:31.930Z,99053.18
2022-12-05T07:19:34.047Z,99055.44
2022-12-05T07:21:10.282Z,99059.45
2022-12-05T07:21:57.508Z,99067.91
2022-12-05T07:22:59.357Z,99062.73
2022-12-05T07:24:01.160Z,99063.66
2022-12-05T07:25:04.043Z,99066.06
2022-12-05T07:26:07.661Z,99068.34
2022-12-05T07:27:09.420Z,99071.81
2022-12-05T07:28:11.197Z,99073.70
2022-12-05T07:29:13.044Z,99070.73
2022-12-05T07:30:14.963Z,99068.41
2022-12-05T07:31:19.733Z,99073.18
2022-12-05T07:32:21.557Z,99069.49
2022-12-05T07:33:23.294Z,99070.55
2022-12-05T07:34:25.129Z,99067.70
2022-12-05T07:35:26.911Z,99070.45
2022-12-05T07:36:28.684Z,99072.21
2022-12-05T07:37:30.478Z,99073.35
2022-12-05T07:38:32.584Z,99071.84
2022-12-05T07:39:34.343Z,99072.66
2022-12-05T07:40:37.587Z,99069.02
2022-12-05T07:41:39.529Z,99059.72
2022-12-05T07:42:41.935Z,99059.55
2022-12-05T07:43:43.812Z,99055.81
2022-12-05T07:44:45.574Z,99058.39
2022-12-05T07:45:47.525Z,99059.35
2022-12-05T07:46:49.316Z,99051.30
2022-12-05T07:47:51.107Z,99052.84
2022-12-05T07:48:53.863Z,99046.70
2022-12-05T07:49:55.681Z,99038.83
2022-12-05T07:51:03.439Z,99039.70
2022-12-05T07:52:05.266Z,99041.59
2022-12-05T07:53:07.068Z,99045.84
2022-12-05T07:54:08.844Z,99043.02
2022-12-05T07:55:10.872Z,99043.88
2022-12-05T07:56:17.180Z,99047.61
2022-12-05T07:57:19.078Z,99051.71
2022-12-05T07:58:20.995Z,99049.85
2022-12-05T07:59:22.798Z,99053.20
2022-12-05T08:00:24.583Z,99053.41
2022-12-05T08:01:28.943Z,99061.08
2022-12-05T08:02:30.787Z,99060.81
2022-12-05T08:03:32.826Z,99057.63
2022-12-05T08:04:34.808Z,99062.56
2022-12-05T08:05:37.609Z,99061.65
2022-12-05T08:06:39.410Z,99059.36
2022-12-05T08:07:42.027Z,99056.45
2022-12-05T08:08:45.082Z,99058.48
2022-12-05T08:09:46.808Z,99056.04
2022-12-05T08:10:48.546Z,99053.91
2022-12-05T08:11:52.748Z,99056.71
2022-12-05T08:12:54.820Z,99056.16
2022-12-05T08:13:58.200Z,99053.48
2022-12-05T08:14:59.955Z,99049.99
2022-12-05T08:16:07.838Z,99048.58
2022-12-05T08:17:09.967Z,99047.42
2022-12-05T08:18:11.761Z,99052.82
2022-12-05T08:19:14.176Z,99048.89
2022-12-05T08:20:16.079Z,99047.55
2022-12-05T08:21:19.880Z,99038.53
2022-12-05T08:22:21.635Z,99036.98
2022-12-05T08:23:23.358Z,99039.73
2022-12-05T08:24:25.225Z,99040.59
2022-12-05T08:25:27.031Z,99042.17
2022-12-05T08:26:32.757Z,99041.70
2022-12-05T08:27:34.579Z,99039.45
2022-12-05T08:28:36.919Z,99043.19
2022-12-05T08:29:38.621Z,99047.85
2022-12-05T08:30:40.502Z,99049.61
2022-12-05T08:31:47.435Z,99045.84
2022-12-05T08:32:49.247Z,99046.87
2022-12-05T08:33:57.088Z,99045.65
2022-12-05T08:35:00.502Z,99048.63
2022-12-05T08:36:04.745Z,99047.30
2022-12-05T08:37:06.542Z,99048.03
2022-12-05T08:38:08.332Z,99048.09
2022-12-05T08:39:15.022Z,99049.91
2022-12-05T08:40:17.320Z,99048.70
2022-12-05T08:41:19.621Z,99049.44
2022-12-05T08:42:21.343Z,99050.90
2022-12-05T08:43:23.099Z,99046.85
2022-12-05T08:44:25.173Z,99044.14
2022-12-05T08:45:26.987Z,99040.52
2022-12-05T08:46:30.445Z,99040.13
2022-12-05T08:47:32.697Z,99039.71
2022-12-05T08:48:35.549Z,99036.73
2022-12-05T08:49:37.334Z,99039.23
2022-12-05T08:50:39.396Z,99043.94
2022-12-05T08:51:42.817Z,99047.73
2022-12-05T08:52:44.614Z,99048.68
2022-12-05T08:53:46.406Z,99042.80
2022-12-05T08:54:48.171Z,99041.26
2022-12-05T08:55:50.026Z,99043.62
2022-12-05T08:56:52.058Z,99043.48
2022-12-05T08:57:53.912Z,99043.65
2022-12-05T08:59:03.010Z,99045.54
2022-12-05T09:00:07.824Z,99044.46
2022-12-05T09:01:15.639Z,99042.96
2022-12-05T09:02:17.539Z,99042.42
2022-12-05T09:03:19.305Z,99042.31
2022-12-05T09:04:21.131Z,99048.17
2022-12-05T09:05:28.326Z,99044.66
2022-12-05T09:06:32.820Z,99046.16
2022-12-05T09:07:34.652Z,99047.02
2022-12-05T09:08:37.435Z,99050.51
2022-12-05T09:09:39.328Z,99048.84
2022-12-05T09:10:41.239Z,99047.05
2022-12-05T09:11:48.837Z,99048.54
2022-12-05T09:12:51.348Z,99045.69
2022-12-05T09:13:55.289Z,99042.96
2022-12-05T09:14:57.522Z,99043.91
2022-12-05T09:15:59.739Z,99048.00
2022-12-05T09:17:01.639Z,99046.08
2022-12-05T09:18:03.434Z,99045.55
2022-12-05T09:19:05.871Z,99044.29
2022-12-05T09:20:08.879Z,99043.45
2022-12-05T09:21:19.059Z,99046.18
2022-12-05T09:22:24.223Z,99044.30
2022-12-05T09:23:25.958Z,99040.73
2022-12-05T09:24:27.744Z,99036.30
2022-12-05T09:25:29.536Z,99032.33
2022-12-05T09:26:31.411Z,99034.66
2022-12-05T09:27:33.260Z,99031.86
2022-12-05T09:28:35.329Z,99036.66
2022-12-05T09:29:37.467Z,99037.29
2022-12-05T09:30:39.510Z,99038.21
2022-12-05T09:31:43.081Z,99034.77
2022-12-05T09:32:45.125Z,99037.81
2022-12-05T09:33:48.880Z,99038.73
2022-12-05T09:34:50.624Z,99038.77
2022-12-05T09:35:52.386Z,99036.61
2022-12-05T09:37:10.362Z,99035.06
2022-12-05T09:38:15.953Z,99033.84
2022-12-05T09:39:18.315Z,99034.25
2022-12-05T09:40:20.219Z,99029.89
2022-12-05T09:42:04.950Z,99031.93
2022-12-05T09:43:09.115Z,99030.38
2022-12-05T09:44:39.319Z,99025.95
2022-12-05T09:46:00.591Z,99023.96
2022-12-05T09:47:28.774Z,99021.81
2022-12-05T09:48:31.755Z,99018.83
2022-12-05T09:49:46.815Z,99016.10
2022-12-05T09:50:56.879Z,99016.66
2022-12-05T09:52:01.830Z,99017.45
2022-12-05T09:53:09.263Z,99017.90
2022-12-05T09:54:13.165Z,99018.60
2022-12-05T09:55:19.219Z,99015.70
2022-12-05T09:56:31.295Z,99015.73
2022-12-05T09:57:42.855Z,99017.33
2022-12-05T09:58:53.100Z,99016.96
2022-12-05T09:59:54.985Z,99017.03
2022-12-05T10:01:12.060Z,99014.62
2022-12-05T10:02:50.720Z,99019.38
2022-12-05T10:04:37.284Z,99015.34
2022-12-05T10:06:00.548Z,99013.80
2022-12-05T10:07:23.948Z,99012.98
2022-12-05T10:08:47.265Z,99012.94
2022-12-05T10:10:07.674Z,99004.60
2022-12-05T10:11:30.706Z,99007.26
2022-12-05T10:12:51.084Z,99006.43
2022-12-05T10:14:07.758Z,98999.80
2022-12-05T10:15:29.111Z,99000.91
2022-12-05T10:16:37.749Z,99000.82
2022-12-05T10:17:56.993Z,98996.60
2022-12-05T10:19:06.719Z,98990.27
2022-12-05T10:20:25.134Z,98991.08
2022-12-05T10:21:47.959Z,98991.73
2022-12-05T10:23:34.682Z,98995.65
2022-12-05T10:24:45.219Z,98992.75
2022-12-05T10:26:00.093Z,98994.58
2022-12-05T10:27:08.617Z,98996.42
2022-12-05T10:28:21.172Z,98996.58
2022-12-05T10:29:35.254Z,98999.00
2022-12-05T10:30:42.315Z,98997.48
2022-12-05T10:31:48.398Z,99001.02
2022-12-05T10:32:54.802Z,98996.44
2022-12-05T10:34:09.982Z,98994.84
2022-12-05T10:35:36.316Z,98992.98
2022-12-05T10:36:38.117Z,98992.65
2022-12-05T10:37:41.712Z,98990.14
2022-12-05T10:38:45.860Z,98993.14
2022-12-05T10:39:49.960Z,98993.63
2022-12-05T10:40:58.270Z,98990.50
2022-12-05T10:42:00.438Z,98989.60
2022-12-05T10:43:03.792Z,98989.85
2022-12-05T10:44:06.078Z,98993.36
2022-12-05T10:45:16.248Z,98984.95
2022-12-05T10:46:18.348Z,98984.58
2022-12-05T10:47:20.251Z,98987.89
2022-12-05T10:48:23.834Z,98986.55
2022-12-05T10:49:28.070Z,98985.92
2022-12-05T10:50:35.685Z,98980.13
2022-12-05T10:51:38.481Z,98978.00
2022-12-05T10:52:40.562Z,98975.02
2022-12-05T10:53:46.448Z,98977.77
2022-12-05T10:54:59.112Z,98976.18
2022-12-05T10:56:29.193Z,98979.66
2022-12-05T10:57:30.260Z,98979.98
2022-12-05T10:58:32.125Z,98976.34
2022-12-05T10:59:47.321Z,98978.76
2022-12-05T11:00:55.156Z,98976.31
2022-12-05T11:02:00.163Z,98978.34
2022-12-05T11:03:06.314Z,98975.00
2022-12-05T11:04:20.501Z,98973.73
2022-12-05T11:05:31.680Z,98970.00
2022-12-05T11:06:33.587Z,98971.77
2022-12-05T11:07:49.573Z,98972.86
2022-12-05T11:09:04.387Z,98968.23
2022-12-05T11:10:26.952Z,98967.61
2022-12-05T11:11:35.400Z,98965.58
2022-12-05T11:12:39.523Z,98959.35
2022-12-05T11:13:54.483Z,98955.46
2022-12-05T11:15:03.027Z,98959.35
2022-12-05T11:16:06.011Z,98956.45
2022-12-05T11:17:25.977Z,98951.90
2022-12-05T11:18:29.782Z,98954.64
2022-12-05T11:19:37.668Z,98951.33
2022-12-05T11:20:41.252Z,98952.48
2022-12-05T11:21:43.910Z,98950.22
2022-12-05T11:22:49.492Z,98948.66
2022-12-05T11:23:51.274Z,98954.55
2022-12-05T11:24:53.010Z,98951.73
2022-12-05T11:25:57.865Z,98952.84
2022-12-05T11:27:17.835Z,98953.77
2022-12-05T11:28:19.789Z,98956.23
2022-12-05T11:29:37.616Z,98956.67
2022-12-05T11:30:39.392Z,98957.49
2022-12-05T11:31:51.932Z,98955.00
2022-12-05T11:33:19.571Z,98953.41
2022-12-05T11:34:27.452Z,98955.82
2022-12-05T11:35:29.265Z,98959.58
2022-12-05T11:36:46.611Z,98955.24
2022-12-05T11:38:05.426Z,98952.05
2022-12-05T11:39:11.639Z,98951.86
2022-12-05T11:40:28.926Z,98956.48
2022-12-05T11:41:47.891Z,98955.51
2022-12-05T11:43:10.364Z,98956.00
2022-12-05T11:44:17.754Z,98949.73
2022-12-05T11:45:53.678Z,98948.19
2022-12-05T11:46:58.406Z,98948.34
2022-12-05T11:48:35.877Z,98947.20
2022-12-05T11:50:06.711Z,98949.61
2022-12-05T11:51:23.614Z,98953.42
2022-12-05T11:53:05.093Z,98949.77
2022-12-05T11:54:35.649Z,98949.50
2022-12-05T11:55:54.293Z,98948.81
2022-12-05T11:57:26.531Z,98947.65
2022-12-05T11:58:52.655Z,98939.48
2022-12-05T12:00:16.397Z,98943.35
2022-12-05T12:01:41.181Z,98944.77
2022-12-05T12:03:01.597Z,98940.17
2022-12-05T12:04:35.651Z,98935.05
2022-12-05T12:06:10.243Z,98930.67
2022-12-05T12:07:34.047Z,98924.61
2022-12-05T12:08:56.909Z,98926.26
2022-12-05T12:10:14.670Z,98927.19
2022-12-05T12:11:46.566Z,98928.80
2022-12-05T12:13:16.698Z,98923.38
2022-12-05T12:14:51.057Z,98923.66
2022-12-05T12:15:58.443Z,98927.32
2022-12-05T12:17:10.091Z,98924.77
2022-12-05T12:18:40.480Z,98922.73
2022-12-05T12:19:47.870Z,98919.00
2022-12-05T12:21:03.086Z,98917.73
2022-12-05T12:22:29.114Z,98915.92
2022-12-05T12:23:46.940Z,98914.29
2022-12-05T12:25:30.415Z,98913.80
2022-12-05T12:26:53.366Z,98905.65
2022-12-05T12:28:05.186Z,98906.34
2022-12-05T12:29:45.519Z,98903.80
2022-12-05T12:31:05.782Z,98902.94
2022-12-05T12:32:44.898Z,98897.25
2022-12-05T12:34:11.763Z,98898.31
2022-12-05T12:35:30.576Z,98892.76
2022-12-05T12:36:47.700Z,98890.39
2022-12-05T12:38:24.869Z,98885.54
2022-12-05T12:39:47.378Z,98885.17
2022-12-05T12:41:33.981Z,98888.25
2022-12-05T12:43:03.920Z,98885.14
2022-12-05T12:44:40.605Z,98885.48
2022-12-05T12:46:16.374Z,98882.64
2022-12-05T12:47:20.781Z,98885.83
2022-12-05T12:48:29.874Z,98885.59
2022-12-05T12:50:10.819Z,98885.05
2022-12-05T12:51:14.547Z,98883.91
2022-12-05T12:52:23.382Z,98886.70
2022-12-05T12:53:52.952Z,98891.19
2022-12-05T12:55:06.832Z,98890.42
2022-12-05T12:56:20.505Z,98891.86
2022-12-05T12:57:35.029Z,98886.98
2022-12-05T12:58:55.208Z,98895.25
2022-12-05T12:59:59.794Z,98892.96
2022-12-05T13:01:21.746Z,98894.19
2022-12-05T13:02:33.448Z,98892.91
2022-12-05T13:03:51.384Z,98886.16
2022-12-05T13:05:01.450Z,98886.37
2022-12-05T13:06:13.598Z,98888.13
2022-12-05T13:07:36.181Z,98889.34
2022-12-05T13:08:44.074Z,98881.89
2022-12-05T13:09:58.393Z,98888.81
2022-12-05T13:11:06.451Z,98892.92
2022-12-05T13:12:15.278Z,98885.86
2022-12-05T13:13:25.243Z,98886.84
2022-12-05T13:14:31.187Z,98893.02
2022-12-05T13:15:44.650Z,98891.32
2022-12-05T13:16:52.296Z,98890.98
2022-12-05T13:17:55.183Z,98891.97
2022-12-05T13:18:58.612Z,98892.02
2022-12-05T13:20:01.629Z,98890.78
2022-12-05T13:21:08.386Z,98891.86
2022-12-05T13:22:13.176Z,98890.82
2022-12-05T13:23:19.570Z,98893.94
2022-12-05T13:24:27.244Z,98887.63